Time;durP1;ratioP1;P1;durP2;ratioP2;P2;SDS_P1;SDS_P2;PMS_P1;PMS_P2;Temp;Humidity;BMP_temperature;BMP_pressure;BME280_temperature;BME280_humidity;BME280_pressure;Samples;Min_cycle;Max_cycle;Signal;HPM_P1;HPM_P2
2021/12/04 00:00:42;;;;;;;3.22;2.85;;;8.90;68.00;;;;;;5055039;28;20046;-74
2021/12/04 00:03:08;;;;;;;3.33;2.80;;;8.90;68.00;;;;;;5062182;28;20020;-74
2021/12/04 00:05:34;;;;;;;3.80;3.03;;;8.90;68.00;;;;;;5064985;28;20044;-74
2021/12/04 00:08:00;;;;;;;3.78;3.00;;;8.90;68.00;;;;;;5048145;28;20047;-74
2021/12/04 00:10:30;;;;;;;3.65;2.92;;;8.90;68.00;;;;;;5062985;28;20041;-74
2021/12/04 00:12:56;;;;;;;4.45;2.92;;;8.90;68.00;;;;;;5061258;28;20091;-74
2021/12/04 00:15:22;;;;;;;3.67;2.90;;;8.90;68.00;;;;;;5063308;28;20044;-75
2021/12/04 00:17:48;;;;;;;3.85;2.83;;;8.90;68.00;;;;;;5046538;28;20053;-74
2021/12/04 00:20:14;;;;;;;3.42;3.10;;;8.90;68.00;;;;;;5062856;28;20025;-74
2021/12/04 00:22:41;;;;;;;3.20;2.88;;;8.90;68.00;;;;;;5071246;28;20091;-74
2021/12/04 00:25:07;;;;;;;3.55;3.03;;;8.90;68.00;;;;;;5063554;28;20064;-75
2021/12/04 00:27:33;;;;;;;3.53;2.90;;;8.90;68.00;;;;;;5061464;28;20033;-74
2021/12/04 00:29:59;;;;;;;3.85;3.00;;;8.90;68.00;;;;;;5061180;28;20032;-75
2021/12/04 00:32:53;;;;;;;3.10;2.80;;;8.90;68.00;;;;;;5063836;28;20103;-74
2021/12/04 00:35:20;;;;;;;4.18;3.25;;;8.90;68.00;;;;;;5055270;28;20463;-74
2021/12/04 00:51:24;;;;;;;3.03;2.72;;;8.80;68.00;;;;;;5061310;28;20177;-75
2021/12/04 00:53:54;;;;;;;4.43;3.13;;;8.80;68.00;;;;;;5061036;28;20060;-74
2021/12/04 00:56:20;;;;;;;3.58;2.88;;;8.80;68.00;;;;;;5062812;28;20386;-74
2021/12/04 00:58:46;;;;;;;3.72;3.00;;;8.80;68.00;;;;;;5054484;28;20040;-74
2021/12/04 01:01:14;;;;;;;3.42;3.00;;;8.80;68.00;;;;;;5062943;28;20033;-74
2021/12/04 01:03:39;;;;;;;3.60;2.90;;;8.80;68.00;;;;;;5062262;28;20044;-74
2021/12/04 01:06:06;;;;;;;3.50;2.97;;;8.80;68.00;;;;;;5063284;28;20044;-74
2021/12/04 01:08:32;;;;;;;3.05;2.75;;;8.80;68.00;;;;;;5060678;28;20028;-74
2021/12/04 01:10:58;;;;;;;3.08;2.78;;;8.80;68.10;;;;;;5050217;28;20044;-74
2021/12/04 01:13:23;;;;;;;4.07;3.30;;;8.70;68.00;;;;;;5063265;28;20087;-74
2021/12/04 01:15:49;;;;;;;4.10;3.30;;;8.70;68.00;;;;;;5063837;28;20029;-75
2021/12/04 01:18:15;;;;;;;4.07;2.90;;;8.70;68.00;;;;;;5060631;28;20075;-74
2021/12/04 01:20:41;;;;;;;4.18;3.10;;;8.70;68.00;;;;;;5060263;28;20040;-75
2021/12/04 01:23:07;;;;;;;4.15;3.30;;;8.70;68.00;;;;;;5060317;28;20059;-75
2021/12/04 01:25:35;;;;;;;3.85;2.90;;;8.70;68.00;;;;;;5063919;28;20075;-74
2021/12/04 01:28:03;;;;;;;3.53;3.22;;;8.70;68.00;;;;;;5063571;28;20458;-74
2021/12/04 01:30:29;;;;;;;4.18;2.92;;;8.70;68.00;;;;;;5063084;28;20067;-74
2021/12/04 01:32:55;;;;;;;3.58;2.90;;;8.70;68.10;;;;;;5063640;28;20052;-74
2021/12/04 01:35:20;;;;;;;3.60;2.80;;;8.70;68.00;;;;;;5060802;28;20028;-74
2021/12/04 01:37:46;;;;;;;3.80;3.13;;;8.70;68.00;;;;;;5060085;28;20112;-74
2021/12/04 01:40:12;;;;;;;3.45;2.88;;;8.70;68.00;;;;;;5060776;28;20025;-74
2021/12/04 01:42:38;;;;;;;4.03;2.85;;;8.70;68.00;;;;;;5063672;28;20060;-74
2021/12/04 01:45:06;;;;;;;3.70;3.13;;;8.70;68.00;;;;;;5063109;28;20064;-74
2021/12/04 01:47:32;;;;;;;3.53;3.00;;;8.70;68.00;;;;;;5042154;28;20025;-74
2021/12/04 01:50:00;;;;;;;3.30;3.00;;;8.60;68.00;;;;;;5058361;28;20036;-74
2021/12/04 01:52:26;;;;;;;3.45;2.90;;;8.70;68.00;;;;;;5053581;28;20485;-74
2021/12/04 01:54:52;;;;;;;3.30;2.90;;;8.60;68.00;;;;;;5063730;28;20083;-74
2021/12/04 01:57:20;;;;;;;3.50;2.90;;;8.60;68.00;;;;;;5062554;28;20037;-74
2021/12/04 01:59:47;;;;;;;3.38;2.97;;;8.60;68.00;;;;;;5063126;28;20032;-74
2021/12/04 02:02:13;;;;;;;2.97;2.67;;;8.60;68.00;;;;;;5061998;28;20463;-74
2021/12/04 02:04:39;;;;;;;4.05;3.28;;;8.60;68.00;;;;;;5060155;28;20033;-74
2021/12/04 02:07:05;;;;;;;3.33;2.80;;;8.60;68.00;;;;;;5060681;28;20039;-74
2021/12/04 02:09:32;;;;;;;3.72;3.10;;;8.60;68.00;;;;;;5059970;28;20057;-74
2021/12/04 02:11:58;;;;;;;3.80;3.15;;;8.60;68.00;;;;;;5060145;28;20037;-74
2021/12/04 02:14:24;;;;;;;4.00;3.20;;;8.60;68.00;;;;;;5062387;28;20025;-74
2021/12/04 02:16:51;;;;;;;3.70;3.15;;;8.60;68.00;;;;;;5063095;28;20114;-74
2021/12/04 02:19:17;;;;;;;4.40;3.03;;;8.60;68.00;;;;;;5061185;28;20064;-74
2021/12/04 02:21:43;;;;;;;4.10;3.33;;;8.60;68.00;;;;;;5053612;28;20040;-74
2021/12/04 02:24:09;;;;;;;3.97;3.08;;;8.60;68.00;;;;;;5061784;28;20416;-74
2021/12/04 02:26:35;;;;;;;3.42;3.00;;;8.50;68.00;;;;;;5059524;28;20032;-75
2021/12/04 02:29:01;;;;;;;3.60;3.17;;;8.60;68.00;;;;;;5060719;28;20037;-74
2021/12/04 02:31:27;;;;;;;4.05;3.00;;;8.50;68.50;;;;;;5066347;28;20028;-74
2021/12/04 02:33:53;;;;;;;3.20;2.78;;;8.50;68.00;;;;;;5073313;28;20029;-74
2021/12/04 02:36:20;;;;;;;3.55;3.10;;;8.50;68.00;;;;;;5064634;28;20378;-74
2021/12/04 02:38:49;;;;;;;4.10;3.28;;;8.50;68.00;;;;;;5063040;28;20039;-74
2021/12/04 02:41:15;;;;;;;5.13;3.47;;;8.50;68.00;;;;;;5064562;28;20021;-75
2021/12/04 02:43:41;;;;;;;3.20;2.88;;;8.50;68.00;;;;;;5066976;28;20449;-74
2021/12/04 02:46:07;;;;;;;3.88;3.00;;;8.50;68.00;;;;;;5065823;28;20032;-74
2021/12/04 02:48:32;;;;;;;4.72;3.15;;;8.50;68.00;;;;;;5063524;28;20021;-74
2021/12/04 02:50:58;;;;;;;3.53;3.22;;;8.50;68.00;;;;;;5062870;28;20033;-74
2021/12/04 02:53:24;;;;;;;3.60;3.10;;;8.50;68.00;;;;;;5055793;28;20051;-74
2021/12/04 02:55:52;;;;;;;4.30;3.30;;;8.50;68.00;;;;;;5066238;28;20529;-74
2021/12/04 02:58:19;;;;;;;3.30;2.97;;;8.50;68.00;;;;;;5063598;28;20040;-74
2021/12/04 03:00:49;;;;;;;4.00;3.30;;;8.50;68.00;;;;;;5063100;28;20033;-74
2021/12/04 03:03:17;;;;;;;4.45;3.15;;;8.50;68.00;;;;;;5063092;28;20032;-74
2021/12/04 03:05:47;;;;;;;3.53;2.95;;;8.50;68.00;;;;;;5061436;28;20020;-74
2021/12/04 03:08:13;;;;;;;4.00;3.05;;;8.50;68.00;;;;;;5065100;28;20362;-74
2021/12/04 03:10:38;;;;;;;3.33;2.90;;;8.50;68.00;;;;;;5062281;28;20056;-74
2021/12/04 03:13:08;;;;;;;3.67;2.92;;;8.50;68.00;;;;;;5062946;28;20029;-74
2021/12/04 03:15:34;;;;;;;3.58;3.03;;;8.50;68.00;;;;;;5062531;28;20116;-74
2021/12/04 03:18:00;;;;;;;3.22;2.92;;;8.40;68.00;;;;;;5062466;28;20586;-74
2021/12/04 03:20:25;;;;;;;3.20;2.90;;;8.50;68.00;;;;;;5065617;28;20041;-74
2021/12/04 03:22:58;;;;;;;4.07;3.00;;;8.40;67.90;;;;;;5065685;28;20035;-75
2021/12/04 03:25:24;;;;;;;3.20;2.90;;;8.50;68.00;;;;;;5058123;28;20114;-74
2021/12/04 03:27:51;;;;;;;3.50;3.20;;;8.40;67.90;;;;;;5065738;28;20052;-74
2021/12/04 03:41:14;;;;;;;2.83;2.50;;;8.40;67.90;;;;;;5062858;28;20078;-74
2021/12/04 03:43:40;;;;;;;3.88;3.20;;;8.40;67.90;;;;;;5065566;28;20036;-74
2021/12/04 03:46:09;;;;;;;3.83;2.97;;;8.40;67.90;;;;;;5065353;28;20394;-74
2021/12/04 03:51:05;;;;;;;3.90;3.03;;;8.40;68.00;;;;;;5063284;28;20028;-75
2021/12/04 03:53:31;;;;;;;3.65;3.17;;;8.40;68.00;;;;;;5057345;28;20032;-74
2021/12/04 03:55:57;;;;;;;3.40;3.10;;;8.40;68.00;;;;;;5061794;28;20394;-74
2021/12/04 03:58:24;;;;;;;3.20;2.80;;;8.40;68.00;;;;;;5062764;28;20071;-74
2021/12/04 04:00:50;;;;;;;3.92;3.30;;;8.30;67.90;;;;;;5062403;28;20043;-74
2021/12/04 04:03:16;;;;;;;3.60;3.10;;;8.30;67.90;;;;;;5063752;28;20505;-74
2021/12/04 04:05:42;;;;;;;3.75;3.35;;;8.40;68.00;;;;;;5067572;28;20108;-74
2021/12/04 04:08:10;;;;;;;3.78;3.22;;;8.30;67.90;;;;;;5062949;28;20032;-74
2021/12/04 04:10:36;;;;;;;4.35;3.10;;;8.40;68.00;;;;;;5047859;28;20090;-74
2021/12/04 04:13:02;;;;;;;4.07;3.10;;;8.30;67.90;;;;;;5065162;28;20025;-74
2021/12/04 04:15:27;;;;;;;3.30;2.95;;;8.30;67.90;;;;;;5062911;28;20032;-74
2021/12/04 04:17:53;;;;;;;3.75;3.10;;;8.30;67.90;;;;;;5054513;28;20398;-74
2021/12/04 04:20:21;;;;;;;4.72;3.10;;;8.30;67.90;;;;;;5064028;28;20378;-74
2021/12/04 04:22:48;;;;;;;4.07;3.13;;;8.30;67.90;;;;;;5065959;28;20469;-74
2021/12/04 04:25:15;;;;;;;3.90;3.15;;;8.30;67.90;;;;;;5045930;28;20037;-74
2021/12/04 04:27:42;;;;;;;3.58;3.05;;;8.30;67.90;;;;;;5062217;28;20103;-74
2021/12/04 04:30:14;;;;;;;3.83;3.25;;;8.30;67.90;;;;;;5062433;28;20040;-73
2021/12/04 04:32:41;;;;;;;3.13;2.80;;;8.30;67.90;;;;;;5047683;28;20033;-74
2021/12/04 04:35:14;;;;;;;3.67;2.95;;;8.30;67.90;;;;;;5064397;28;20071;-74
2021/12/04 04:37:55;;;;;;;3.47;3.05;;;8.30;67.90;;;;;;5049392;28;20111;-73
2021/12/04 05:02:20;;;;;;;4.07;3.08;;;8.20;68.50;;;;;;4999698;28;20046;-73
2021/12/04 05:13:04;;;;;;;3.47;3.00;;;8.20;67.90;;;;;;5061343;28;20099;-74
2021/12/04 05:15:43;;;;;;;3.83;3.22;;;8.20;67.90;;;;;;5057202;28;20043;-74
2021/12/04 05:21:04;;;;;;;3.70;3.25;;;8.20;67.90;;;;;;5061448;28;20044;-73
2021/12/04 05:23:52;;;;;;;4.18;3.28;;;8.20;67.90;;;;;;5054893;28;20370;-74
2021/12/04 05:26:25;;;;;;;4.25;3.33;;;8.20;67.80;;;;;;5064000;28;20032;-74
2021/12/04 05:28:51;;;;;;;3.50;3.00;;;8.20;67.90;;;;;;5055259;28;20378;-74
2021/12/04 05:31:17;;;;;;;3.35;3.00;;;8.20;67.90;;;;;;5039597;28;20433;-74
2021/12/04 05:33:44;;;;;;;3.80;2.97;;;8.20;67.90;;;;;;5064400;28;20481;-74
2021/12/04 05:36:10;;;;;;;4.28;3.53;;;8.10;67.90;;;;;;5062781;28;20033;-74
2021/12/04 05:38:36;;;;;;;4.05;3.20;;;8.20;67.90;;;;;;5064234;28;20037;-74
2021/12/04 05:41:03;;;;;;;4.50;3.45;;;8.20;67.90;;;;;;5064076;28;20041;-74
2021/12/04 05:43:30;;;;;;;4.13;3.30;;;8.20;67.90;;;;;;5056357;28;20490;-74
2021/12/04 05:48:39;;;;;;;3.45;3.10;;;8.20;67.90;;;;;;5060917;28;20037;-73
2021/12/04 05:55:07;;;;;;;3.33;3.03;;;8.20;67.90;;;;;;5029513;28;20106;-74
2021/12/04 05:56:52;;;;;;;4.72;3.10;;;8.20;67.90;;;;;;5051869;28;20474;-74
2021/12/04 05:59:18;;;;;;;3.67;3.10;;;8.20;67.90;;;;;;5061968;28;20115;-74
2021/12/04 06:01:43;;;;;;;4.10;3.17;;;8.20;67.90;;;;;;5046201;28;20036;-74
2021/12/04 06:04:09;;;;;;;3.85;3.17;;;8.10;67.80;;;;;;5064613;28;20062;-74
2021/12/04 06:06:35;;;;;;;3.95;3.20;;;8.20;67.90;;;;;;5064943;28;20024;-74
2021/12/04 06:09:01;;;;;;;3.92;3.10;;;8.10;67.80;;;;;;5064390;28;20104;-74
2021/12/04 06:11:29;;;;;;;3.85;3.03;;;8.10;67.80;;;;;;5065599;28;20371;-74
2021/12/04 06:13:56;;;;;;;3.63;3.20;;;8.10;67.80;;;;;;5064256;28;20032;-74
2021/12/04 06:16:21;;;;;;;4.75;3.50;;;8.20;67.80;;;;;;5066749;28;20041;-74
2021/12/04 06:18:51;;;;;;;3.80;3.25;;;8.20;67.80;;;;;;5067959;28;20041;-73
2021/12/04 06:24:03;;;;;;;3.78;3.20;;;8.10;67.80;;;;;;5069677;28;20087;-74
2021/12/04 06:26:33;;;;;;;4.30;3.40;;;8.20;67.80;;;;;;5070988;28;20032;-72
2021/12/04 06:29:00;;;;;;;3.25;2.95;;;8.20;67.80;;;;;;5051268;28;20024;-73
2021/12/04 06:31:26;;;;;;;4.30;3.20;;;8.20;67.80;;;;;;5068760;28;20107;-73
2021/12/04 06:33:52;;;;;;;4.15;3.08;;;8.20;67.80;;;;;;5067595;28;20036;-72
2021/12/04 06:36:18;;;;;;;4.28;3.30;;;8.20;67.80;;;;;;5065171;28;20116;-72
2021/12/04 06:38:44;;;;;;;4.00;3.33;;;8.20;67.80;;;;;;5066974;28;20032;-74
2021/12/04 06:41:10;;;;;;;3.92;3.15;;;8.20;67.70;;;;;;5046625;28;20040;-74
2021/12/04 06:43:38;;;;;;;3.67;3.10;;;8.20;67.70;;;;;;5067787;28;20102;-74
2021/12/04 06:46:06;;;;;;;4.15;3.30;;;8.20;67.70;;;;;;5066758;28;20033;-74
2021/12/04 06:49:00;;;;;;;3.72;3.15;;;8.20;67.70;;;;;;5046021;28;20029;-74
2021/12/04 06:51:38;;;;;;;4.63;3.27;;;8.20;67.70;;;;;;5052895;28;20028;-74
2021/12/04 06:54:12;;;;;;;3.88;3.20;;;8.30;67.70;;;;;;5069817;28;20107;-75
2021/12/04 06:56:41;;;;;;;4.18;3.38;;;8.20;67.60;;;;;;5054902;28;20043;-74
2021/12/04 06:59:11;;;;;;;4.65;3.38;;;8.20;67.60;;;;;;5068437;28;20043;-73
2021/12/04 07:01:39;;;;;;;3.60;3.10;;;8.20;67.60;;;;;;5053485;28;20049;-74
2021/12/04 07:04:06;;;;;;;4.82;3.40;;;8.30;68.20;;;;;;5058293;28;20040;-74
2021/12/04 07:06:32;;;;;;;3.90;3.40;;;8.30;67.60;;;;;;5064007;28;20406;-74
2021/12/04 07:08:58;;;;;;;3.85;3.10;;;8.30;67.60;;;;;;5066039;28;20063;-74
2021/12/04 07:11:25;;;;;;;3.97;3.33;;;8.30;67.60;;;;;;5046704;28;20035;-74
2021/12/04 07:13:51;;;;;;;4.88;3.30;;;8.30;67.60;;;;;;5066728;28;20466;-73
2021/12/04 07:16:19;;;;;;;3.85;3.35;;;8.30;67.60;;;;;;5061511;28;20033;-74
2021/12/04 07:18:45;;;;;;;4.20;3.50;;;8.30;67.60;;;;;;5044436;28;20406;-73
2021/12/04 07:21:10;;;;;;;4.03;3.22;;;8.30;68.10;;;;;;5068040;28;20029;-74
2021/12/04 07:23:37;;;;;;;4.40;3.47;;;8.30;67.60;;;;;;5057809;28;20463;-74
2021/12/04 07:26:04;;;;;;;3.85;3.25;;;8.30;67.50;;;;;;5053862;28;20371;-74
2021/12/04 07:28:30;;;;;;;4.78;3.42;;;8.30;67.50;;;;;;5055853;28;20470;-75
2021/12/04 07:30:56;;;;;;;3.65;3.20;;;8.30;67.50;;;;;;5067049;28;20043;-74
2021/12/04 07:33:21;;;;;;;4.47;3.50;;;8.30;67.50;;;;;;5064291;28;20109;-75
2021/12/04 07:35:47;;;;;;;4.43;3.20;;;8.30;67.50;;;;;;5048512;28;20029;-74
2021/12/04 07:38:14;;;;;;;4.10;3.38;;;8.30;67.40;;;;;;5067510;28;20032;-75
2021/12/04 07:40:41;;;;;;;4.07;3.03;;;8.30;67.40;;;;;;5055204;28;20033;-74
2021/12/04 07:43:06;;;;;;;4.10;3.38;;;8.30;67.40;;;;;;5062244;28;20102;-74
2021/12/04 07:45:32;;;;;;;3.80;3.40;;;8.40;67.50;;;;;;5062757;28;20056;-74
2021/12/04 07:47:58;;;;;;;3.85;3.35;;;8.40;67.40;;;;;;5062556;28;20025;-72
2021/12/04 07:50:24;;;;;;;3.95;3.20;;;8.40;68.00;;;;;;5063874;28;20543;-73
2021/12/04 07:52:49;;;;;;;4.45;3.30;;;8.40;67.40;;;;;;5052103;28;20029;-74
2021/12/04 07:55:15;;;;;;;4.18;3.30;;;8.40;67.40;;;;;;5057372;28;20021;-73
2021/12/04 07:57:41;;;;;;;3.65;3.20;;;8.40;67.40;;;;;;5064095;28;20025;-73
2021/12/04 08:00:11;;;;;;;3.47;3.15;;;8.40;67.40;;;;;;5054771;28;20368;-74
2021/12/04 08:02:38;;;;;;;3.80;3.25;;;8.40;67.30;;;;;;5055848;28;20048;-73
2021/12/04 08:05:04;;;;;;;4.22;3.25;;;8.40;67.30;;;;;;5036198;28;20029;-73
2021/12/04 08:07:30;;;;;;;4.75;3.35;;;8.40;67.30;;;;;;5070599;28;20036;-74
2021/12/04 08:09:55;;;;;;;4.28;3.20;;;8.40;67.30;;;;;;5054293;28;20035;-73
2021/12/04 08:12:21;;;;;;;4.28;3.42;;;8.40;67.30;;;;;;5072903;28;20048;-74
2021/12/04 08:14:47;;;;;;;4.70;3.10;;;8.40;67.20;;;;;;5067441;28;20032;-74
2021/12/04 08:17:12;;;;;;;3.83;3.05;;;8.40;67.30;;;;;;5072269;28;20016;-74
2021/12/04 08:19:38;;;;;;;3.42;3.03;;;8.40;67.30;;;;;;5054854;28;20055;-74
2021/12/04 08:22:04;;;;;;;4.35;3.47;;;8.40;67.20;;;;;;5072388;28;20450;-74
2021/12/04 08:24:30;;;;;;;3.90;3.17;;;8.40;67.20;;;;;;5055311;28;20149;-74
2021/12/04 08:26:56;;;;;;;4.82;3.53;;;8.40;67.20;;;;;;5072637;28;20131;-74
2021/12/04 08:29:22;;;;;;;3.53;3.15;;;8.40;67.20;;;;;;5073402;28;20482;-75
2021/12/04 08:31:47;;;;;;;4.50;3.33;;;8.50;67.20;;;;;;5073776;28;20036;-74
2021/12/04 08:34:14;;;;;;;4.03;3.30;;;8.40;67.20;;;;;;5073698;28;20027;-75
2021/12/04 08:36:39;;;;;;;3.92;3.33;;;8.50;67.20;;;;;;5069701;28;20029;-74
2021/12/04 08:39:06;;;;;;;4.57;3.40;;;8.50;67.20;;;;;;5072588;28;20094;-74
2021/12/04 08:41:32;;;;;;;4.20;3.70;;;8.50;67.20;;;;;;5070010;28;20024;-73
2021/12/04 08:43:58;;;;;;;3.97;3.20;;;8.50;67.20;;;;;;5073847;28;20043;-73
2021/12/04 08:46:24;;;;;;;4.88;3.60;;;8.50;67.10;;;;;;5074347;28;20068;-73
2021/12/04 08:48:54;;;;;;;5.18;3.45;;;8.50;67.10;;;;;;5061452;28;20029;-73
2021/12/04 08:51:22;;;;;;;4.20;3.30;;;8.50;67.10;;;;;;5054134;28;20471;-74
2021/12/04 08:53:48;;;;;;;4.63;3.60;;;8.50;67.10;;;;;;5073777;28;20028;-74
2021/12/04 08:56:14;;;;;;;4.40;3.60;;;8.50;67.10;;;;;;5073743;28;20029;-74
2021/12/04 08:58:42;;;;;;;4.47;3.15;;;8.50;67.10;;;;;;5069983;28;20028;-74
2021/12/04 09:01:12;;;;;;;4.72;3.55;;;8.50;67.10;;;;;;5093959;28;20028;-73
2021/12/04 09:03:42;;;;;;;4.15;3.38;;;8.50;67.10;;;;;;5066474;28;20028;-74
2021/12/04 09:06:08;;;;;;;4.65;3.63;;;8.50;67.00;;;;;;5046960;28;20028;-73
2021/12/04 09:08:35;;;;;;;4.95;3.67;;;8.60;67.00;;;;;;5068562;28;20347;-74
2021/12/04 09:11:07;;;;;;;5.38;3.60;;;8.60;67.00;;;;;;5049532;28;20052;-74
2021/12/04 09:13:34;;;;;;;4.95;3.67;;;8.60;67.00;;;;;;5061842;28;20037;-73
2021/12/04 09:16:01;;;;;;;4.90;3.75;;;8.60;67.00;;;;;;5093968;28;20035;-74
2021/12/04 09:18:26;;;;;;;5.35;3.90;;;8.60;66.90;;;;;;5078887;28;20056;-75
2021/12/04 09:20:54;;;;;;;5.25;3.80;;;8.60;66.90;;;;;;5073626;28;20031;-74
2021/12/04 09:23:22;;;;;;;5.13;3.92;;;8.60;66.90;;;;;;5055444;28;20052;-74
2021/12/04 09:25:52;;;;;;;4.45;3.58;;;8.60;66.80;;;;;;5073683;28;20025;-75
2021/12/04 10:12:20;;;;;;;4.87;3.80;;;8.70;66.70;;;;;;5065449;28;20047;-73
2021/12/04 10:25:04;;;;;;;4.65;3.35;;;8.80;66.60;;;;;;5064197;28;20463;-71
2021/12/04 10:33:25;;;;;;;4.38;3.55;;;8.80;66.50;;;;;;5006797;28;20514;-71
2021/12/04 10:35:51;;;;;;;4.70;3.75;;;8.80;66.50;;;;;;5040234;28;20045;-73
2021/12/04 10:38:25;;;;;;;4.72;3.80;;;8.90;66.50;;;;;;5050471;28;20059;-75
2021/12/04 10:40:53;;;;;;;8.80;4.80;;;8.90;66.50;;;;;;5046388;28;20033;-73
2021/12/04 10:43:25;;;;;;;10.32;4.93;;;8.90;66.30;;;;;;5062347;28;20112;-72
2021/12/04 10:46:00;;;;;;;10.57;4.50;;;8.90;66.30;;;;;;5063181;28;20040;-74
2021/12/04 10:48:29;;;;;;;5.95;4.40;;;8.90;67.00;;;;;;5047609;28;20061;-74
2021/12/04 10:51:09;;;;;;;10.07;4.80;;;8.90;67.00;;;;;;5071365;28;20024;-74
2021/12/04 10:53:47;;;;;;;10.45;4.90;;;8.90;67.00;;;;;;5066915;28;20028;-73
2021/12/04 10:59:27;;;;;;;6.35;4.45;;;8.90;67.00;;;;;;5069348;28;20093;-76
2021/12/04 11:02:15;;;;;;;8.15;4.35;;;9.00;67.30;;;;;;5068335;28;20061;-75
2021/12/04 11:04:55;;;;;;;7.97;4.32;;;9.00;68.00;;;;;;5043534;28;20044;-74
2021/12/04 11:18:44;;;;;;;6.45;4.25;;;9.10;68.20;;;;;;5066692;28;20055;-73
2021/12/04 11:21:37;;;;;;;5.82;4.00;;;9.10;68.10;;;;;;5064949;28;20116;-74
2021/12/04 11:42:58;;;;;;;6.10;3.90;;;9.00;68.60;;;;;;5060750;28;20041;-78
2021/12/04 11:45:33;;;;;;;5.55;3.78;;;9.00;68.60;;;;;;5062098;28;20074;-77
2021/12/04 11:48:02;;;;;;;4.60;3.78;;;9.10;68.60;;;;;;5077314;28;20052;-78
2021/12/04 11:50:31;;;;;;;5.35;3.90;;;9.10;68.60;;;;;;5073757;28;20024;-79
2021/12/04 11:53:04;;;;;;;5.35;4.00;;;9.10;68.50;;;;;;5040346;28;20096;-79
2021/12/04 11:55:35;;;;;;;5.97;3.80;;;9.10;68.50;;;;;;5067322;28;20062;-82
2021/12/04 11:58:02;;;;;;;5.63;3.75;;;9.00;68.60;;;;;;5047246;28;20028;-80
2021/12/04 12:00:30;;;;;;;5.07;3.60;;;9.10;69.20;;;;;;5065267;28;20108;-79
2021/12/04 12:03:19;;;;;;;4.90;3.90;;;9.10;69.40;;;;;;5067964;28;20413;-77
2021/12/04 12:05:48;;;;;;;5.45;3.92;;;9.10;69.70;;;;;;5063450;28;20032;-80
2021/12/04 12:08:26;;;;;;;5.32;3.97;;;9.10;69.30;;;;;;5075232;28;20093;-80
2021/12/04 12:11:14;;;;;;;5.25;3.90;;;9.10;69.40;;;;;;5079352;28;20041;-78
2021/12/04 12:13:45;;;;;;;7.47;3.88;;;9.10;69.20;;;;;;5046671;28;20043;-77
2021/12/04 12:16:32;;;;;;;4.45;3.60;;;9.20;69.20;;;;;;5061276;28;20494;-77
2021/12/04 12:19:00;;;;;;;5.65;3.92;;;9.10;69.20;;;;;;5074337;28;20135;-77
2021/12/04 12:21:40;;;;;;;5.40;3.80;;;9.10;69.10;;;;;;5063166;28;20033;-78
2021/12/04 12:32:56;;;;;;;5.38;3.30;;;9.50;72.30;;;;;;5065355;28;20032;-77
2021/12/04 12:38:42;;;;;;;5.25;3.58;;;10.10;73.80;;;;;;5060434;28;20043;-78
2021/12/04 12:41:10;;;;;;;3.72;3.00;;;10.20;74.10;;;;;;5062922;28;20471;-77
2021/12/04 12:43:41;;;;;;;6.35;3.65;;;10.30;72.90;;;;;;5064776;28;20029;-77
2021/12/04 12:46:08;;;;;;;5.85;3.20;;;10.30;72.70;;;;;;5066936;28;20048;-77
2021/12/04 12:48:46;;;;;;;5.03;3.35;;;10.30;72.50;;;;;;5060482;28;20497;-80
2021/12/04 12:51:12;;;;;;;4.95;3.67;;;10.20;72.60;;;;;;5064843;28;20020;-79
2021/12/04 12:53:46;;;;;;;4.60;3.70;;;10.20;72.40;;;;;;5047526;28;20036;-80
2021/12/04 12:56:14;;;;;;;4.50;3.60;;;10.10;72.30;;;;;;5054135;28;20024;-81
2021/12/04 12:58:50;;;;;;;4.90;3.53;;;10.10;72.40;;;;;;5089569;28;20027;-79
2021/12/04 13:12:55;;;;;;;5.57;3.55;;;9.70;72.90;;;;;;5093488;28;20035;-77
2021/12/04 13:15:39;;;;;;;6.47;4.32;;;9.60;72.30;;;;;;5093601;28;20461;-78
2021/12/04 13:18:22;;;;;;;5.22;3.92;;;9.60;72.60;;;;;;5093964;28;20048;-77
2021/12/04 13:20:51;;;;;;;5.45;4.10;;;9.60;72.40;;;;;;5075491;28;20520;-77
2021/12/04 13:23:19;;;;;;;6.05;4.05;;;9.50;72.40;;;;;;5094489;28;20436;-77
2021/12/04 13:25:59;;;;;;;7.07;3.53;;;9.50;72.40;;;;;;5093665;28;20028;-78
2021/12/04 13:28:29;;;;;;;9.82;4.30;;;9.40;72.50;;;;;;5093805;28;20107;-78
2021/12/04 13:30:55;;;;;;;7.20;4.30;;;9.40;72.40;;;;;;5093728;28;20024;-78
2021/12/04 13:33:21;;;;;;;6.07;4.13;;;9.40;72.40;;;;;;5093899;28;20103;-77
2021/12/04 13:35:47;;;;;;;5.10;3.95;;;9.30;72.40;;;;;;5093788;28;20107;-77
2021/12/04 13:38:15;;;;;;;5.70;3.90;;;9.30;72.50;;;;;;5093827;28;20107;-77
2021/12/04 13:40:43;;;;;;;6.60;4.38;;;9.30;72.50;;;;;;5075642;28;20509;-79
2021/12/04 13:43:10;;;;;;;5.60;4.35;;;9.30;72.50;;;;;;5093628;28;20036;-79
2021/12/04 13:45:36;;;;;;;6.95;4.25;;;9.20;72.40;;;;;;5075496;28;20028;-78
2021/12/04 13:48:02;;;;;;;5.78;4.30;;;9.20;72.50;;;;;;5093605;28;20020;-78
2021/12/04 13:53:20;;;;;;;8.82;4.70;;;9.10;72.40;;;;;;5093634;28;20032;-78
2021/12/04 13:55:57;;;;;;;6.35;4.75;;;9.10;72.40;;;;;;5075679;28;20024;-77
2021/12/04 13:58:23;;;;;;;6.53;4.40;;;9.00;72.40;;;;;;5093307;28;20056;-78
2021/12/04 14:00:49;;;;;;;6.68;4.70;;;9.00;72.40;;;;;;5093586;28;20365;-77
2021/12/04 14:03:21;;;;;;;5.80;4.60;;;9.00;72.40;;;;;;5075469;28;20506;-77
2021/12/04 14:05:47;;;;;;;6.50;4.38;;;9.00;72.40;;;;;;5093362;28;20035;-77
2021/12/04 14:08:12;;;;;;;6.60;4.70;;;8.90;72.40;;;;;;5093514;28;20032;-77
2021/12/04 14:10:43;;;;;;;8.07;4.90;;;8.90;72.40;;;;;;5093249;28;20107;-77
2021/12/04 14:13:11;;;;;;;7.05;4.78;;;8.90;72.50;;;;;;5093380;28;20035;-78
2021/12/04 14:15:39;;;;;;;6.50;4.80;;;8.80;72.40;;;;;;5093408;28;20024;-77
2021/12/04 14:18:09;;;;;;;6.70;4.68;;;8.80;72.40;;;;;;5093321;28;20040;-78
2021/12/04 14:20:37;;;;;;;7.13;5.18;;;8.80;72.40;;;;;;5093030;28;20024;-77
2021/12/04 14:23:03;;;;;;;7.70;5.18;;;8.70;72.40;;;;;;5093444;28;20035;-77
2021/12/04 14:25:30;;;;;;;6.90;5.18;;;8.70;72.40;;;;;;5095648;28;20527;-77
2021/12/04 14:27:59;;;;;;;7.20;4.78;;;8.70;72.40;;;;;;5096730;28;20374;-77
2021/12/04 14:30:33;;;;;;;8.13;5.22;;;8.70;72.40;;;;;;5097341;28;20046;-77
2021/12/04 14:33:01;;;;;;;7.45;4.75;;;8.70;72.40;;;;;;5079196;28;20128;-77
2021/12/04 14:35:30;;;;;;;8.07;5.40;;;8.60;72.90;;;;;;5078565;28;20032;-77
2021/12/04 14:37:57;;;;;;;7.07;4.97;;;8.60;72.30;;;;;;5078277;28;20024;-78
2021/12/04 14:40:27;;;;;;;7.20;4.85;;;8.60;72.30;;;;;;5078354;28;20028;-78
2021/12/04 14:42:54;;;;;;;7.68;4.90;;;8.60;72.30;;;;;;5078935;28;20035;-76
2021/12/04 14:45:23;;;;;;;8.15;5.63;;;8.60;72.30;;;;;;5096800;28;20020;-78
2021/12/04 14:47:54;;;;;;;8.48;5.22;;;8.50;72.30;;;;;;5097047;28;20073;-78
2021/12/04 14:50:21;;;;;;;8.10;5.47;;;8.50;72.20;;;;;;5078834;28;20020;-78
2021/12/04 14:53:04;;;;;;;9.05;5.68;;;8.50;72.30;;;;;;5096723;28;20027;-79
2021/12/04 14:55:35;;;;;;;7.63;5.40;;;8.50;72.30;;;;;;5097241;28;20028;-77
2021/12/04 14:58:06;;;;;;;8.15;5.50;;;8.50;72.20;;;;;;5096473;28;20024;-77
2021/12/04 15:00:37;;;;;;;8.00;5.60;;;8.50;72.20;;;;;;5078299;28;20090;-77
2021/12/04 15:03:10;;;;;;;8.15;5.72;;;8.40;72.20;;;;;;5096109;28;20032;-78
2021/12/04 15:05:42;;;;;;;9.45;6.40;;;8.40;72.20;;;;;;5096693;28;20028;-77
2021/12/04 15:08:14;;;;;;;8.13;5.70;;;8.40;72.20;;;;;;5096607;28;20047;-77
2021/12/04 15:10:42;;;;;;;9.35;5.95;;;8.40;72.20;;;;;;5096248;28;20051;-78
2021/12/04 15:13:20;;;;;;;8.07;5.70;;;8.40;72.10;;;;;;5096539;28;20107;-78
2021/12/04 15:15:47;;;;;;;7.55;5.40;;;8.40;72.20;;;;;;5077952;28;20032;-78
2021/12/04 15:18:14;;;;;;;9.13;6.30;;;8.40;72.20;;;;;;5077605;28;20047;-77
2021/12/04 15:20:52;;;;;;;8.88;5.95;;;8.30;72.10;;;;;;5096160;28;20067;-78
2021/12/04 15:23:21;;;;;;;9.10;6.10;;;8.30;72.10;;;;;;5077777;28;20054;-77
2021/12/04 15:25:49;;;;;;;10.55;6.65;;;8.30;72.10;;;;;;5094475;28;20437;-78
2021/12/04 15:28:17;;;;;;;10.20;6.40;;;8.30;72.10;;;;;;5094411;28;20058;-77
2021/12/04 15:30:45;;;;;;;8.10;5.93;;;8.30;72.10;;;;;;5095498;28;20020;-78
2021/12/04 15:33:30;;;;;;;11.02;6.35;;;8.30;72.10;;;;;;5077782;28;20123;-77
2021/12/04 15:35:58;;;;;;;10.30;6.78;;;8.30;72.10;;;;;;5093716;28;20416;-77
2021/12/04 15:38:40;;;;;;;9.05;6.55;;;8.30;72.10;;;;;;5095569;28;20028;-78
2021/12/04 15:43:43;;;;;;;8.77;6.63;;;8.20;72.00;;;;;;5096043;28;20028;-77
2021/12/04 15:46:54;;;;;;;8.88;6.25;;;8.20;72.00;;;;;;5095497;28;20480;-78
2021/12/04 15:54:13;;;;;;;9.73;6.82;;;8.20;72.00;;;;;;5095276;28;20028;-78
2021/12/04 15:56:46;;;;;;;10.00;6.95;;;8.20;72.00;;;;;;5077217;28;20439;-78
2021/12/04 15:59:19;;;;;;;8.73;6.43;;;8.20;72.00;;;;;;5077274;28;20043;-77
2021/12/04 16:01:46;;;;;;;10.70;6.90;;;8.20;72.00;;;;;;5095512;28;20043;-77
2021/12/04 16:04:30;;;;;;;9.52;6.90;;;8.20;72.00;;;;;;5095533;28;20024;-77
2021/12/04 16:06:58;;;;;;;9.95;6.90;;;8.20;72.00;;;;;;5077388;28;20089;-78
2021/12/04 16:09:32;;;;;;;9.18;6.63;;;8.20;72.00;;;;;;5076674;28;20024;-78
2021/12/04 16:12:10;;;;;;;9.63;6.63;;;8.10;71.90;;;;;;5094981;28;20036;-78
2021/12/04 16:14:39;;;;;;;10.32;7.32;;;8.10;71.90;;;;;;5076995;28;20037;-78
2021/12/04 16:17:05;;;;;;;9.43;6.93;;;8.10;71.90;;;;;;5077340;28;20101;-77
2021/12/04 16:19:33;;;;;;;10.32;7.03;;;8.10;71.90;;;;;;5094984;28;20055;-77